Thursday, November 23, 2017, 9:36 AM GMT
Back to Local

CYQY, Sydney, N. S.

Location: , , Canada Lat: 46.167
Local Time: 9:36 AM GMT ( 9:36 GMT) Lon: -60.05
Time Zone: GMT Elev: 183 ft

Show me the last for .
Show Decoded

2017-11-23 09:14 METAR CYQY 230914Z 16031G51KT 1SM RA OVC005 12/11 A2926 RMK NS8 PRESFR SLP911
                 DENSITY ALT 700FT =
2017-11-23 09:00 METAR CYQY 230900Z 16033G46KT 3SM RA OVC005 12/11 A2927 RMK NS8 PRESFR SLP916
                 DENSITY ALT 600FT =
2017-11-23 08:00 METAR CYQY 230800Z 14029G43KT 4SM RA OVC006 10/10 A2939 RMK NS8 PRESFR SLP954
                 DENSITY ALT 400FT =
2017-11-23 07:00 METAR CYQY 230700Z 15023G36KT 4SM RA FEW009 SCT032 OVC062 11/10 A2954 RMK
                 CU1SC2SC5 PRESFR SLP005 =
2017-11-23 06:27 METAR CYQY 230627Z 15020G30KT 5SM RA FEW009 OVC054 11/10 A2961 RMK CU2SC6 SLP030
                 =
2017-11-23 06:00 METAR CYQY 230600Z 17026G35KT 6SM -RA FEW032 BKN052 OVC070 12/10 A2965 RMK
                 CU2SC4AS2 SLP041 =
2017-11-23 05:52 METAR CYQY 230552Z 16023G30KT 10SM -RA SCT058 OVC075 13/10 A2965 RMK SC4AS4
                 SLP043 DENSITY ALT 300FT =
2017-11-23 05:00 METAR CYQY 230500Z 16018G26KT 10SM FEW032 SCT090 OVC130 12/09 A2970 RMK
                 SC2AC2AS4 PRESFR SLP062 =
2017-11-23 04:00 METAR CYQY 230400Z 16012KT 10SM FEW032 BKN074 OVC120 11/10 A2979 RMK SC2AC4AS2
                 SLP089 =
2017-11-23 03:00 METAR CYQY 230300Z 15012KT 6SM BR FEW002 OVC075 09/09 A2984 RMK ST1AC7 SLP108 =
2017-11-23 02:00 METAR CYQY 230200Z 15006KT 6SM BR SCT002 SCT034 BKN058 OVC150 08/08 A2989 RMK
                 ST3SC1SC3AS1 SLP126 =
2017-11-23 01:16 METAR CYQY 230116Z 16007KT 6SM BR SCT002 BKN062 OVC120 08/08 A2992 RMK ST3SC2AS3
                 PRESFR SLP135 =
2017-11-23 01:00 METAR CYQY 230100Z 16006KT 2SM BR BKN002 BKN082 OVC120 08/08 A2993 RMK ST5AS2AS1
                 SLP140 =
2017-11-23 00:51 METAR CYQY 230051Z 15005KT 2SM BR BKN002 BKN085 OVC150 08/08 A2993 RMK ST5AS2AS1
                 SLP140 =
2017-11-23 00:31 METAR CYQY 230031Z 13007KT 3SM BR SCT062 BKN080 08/08 A2993 RMK SC3AS4 PRESFR
                 SLP139 =
2017-11-23 00:00 METAR CYQY 230000Z 16006KT 8SM SCT062 BKN070 OVC170 09/08 A2996 RMK SC3AS3AS2
                 SLP149 =
2017-11-22 23:00 METAR CYQY 222300Z 19006KT 10SM FEW160 OVC210 09/08 A2998 RMK AC1CS7 PRESFR
                 SLP155 =
2017-11-22 22:00 METAR CYQY 222200Z 19005KT 10SM FEW200 BKN230 09/08 A3002 RMK CI1CS6 SLP168 =
2017-11-22 21:00 METAR CYQY 222100Z 14005KT 10SM FEW100 FEW200 BKN230 07/06 A3004 RMK AC1CI1CI4
                 SLP174 =
2017-11-22 20:00 METAR CYQY 222000Z VRB02KT 15SM FEW110 SCT220 BKN240 11/07 A3005 RMK AC1CI3CI2
                 SLP179 =
2017-11-22 19:00 METAR CYQY 221900Z 25005KT 15SM FEW110 SCT240 BKN260 12/07 A3004 RMK AC1CI2CI3
                 SLP176 =
2017-11-22 18:00 METAR CYQY 221800Z 26009KT 15SM FEW018 FEW140 BKN250 13/08 A3006 RMK CF1AC1CI5
                 SLP181 =
2017-11-22 17:00 METAR CYQY 221700Z 24013KT 15SM SCT016 BKN250 12/08 A3007 RMK CU4CI2 SLP188 =
2017-11-22 16:00 METAR CYQY 221600Z 24014KT 15SM SCT013 SCT220 BKN240 11/08 A3009 RMK SC3CI1CS3
                 HALO SLP192 =
2017-11-22 15:00 METAR CYQY 221500Z 25011G16KT 15SM SCT013 BKN016 BKN240 11/08 A3010 RMK
                 SC3SC2CI2 SLP197 =
2017-11-22 14:54 METAR CYQY 221454Z 24013KT 15SM FEW013 SCT016 BKN240 11/08 A3010 RMK SC2SC2CI3
                 SLP198 =
2017-11-22 14:00 METAR CYQY 221400Z 23010KT 15SM FEW032 BKN250 10/07 A3012 RMK SC1CI5 SLP203 =
2017-11-22 13:00 METAR CYQY 221300Z 22009KT 15SM FEW032 BKN250 09/06 A3012 RMK SC1CI5 SLP204 =
2017-11-22 12:00 METAR CYQY 221200Z 21008KT 15SM FEW032 FEW240 07/06 A3011 RMK SC1CI1 SLP201 =
2017-11-22 11:00 METAR CYQY 221100Z 22005KT 15SM FEW032 06/05 A3010 RMK SC1 SLP198 =
2017-11-22 10:00 METAR CYQY 221000Z 22010KT 15SM SCT033 07/06 A3010 RMK SC4 SLP198 =

Support USWX by starting your Amazon purchase here.